sensor_id;sensor_type;location;lat;lon;timestamp;P1;durP1;ratioP1;P2;durP2;ratioP2
74650;SDS011;63169;46.042;14.592;2023-11-19T00:01:45;8.45;;;6.40;;
74650;SDS011;63169;46.042;14.592;2023-11-19T00:04:12;9.60;;;4.05;;
74650;SDS011;63169;46.042;14.592;2023-11-19T00:06:37;9.65;;;4.63;;
74650;SDS011;63169;46.042;14.592;2023-11-19T00:09:03;10.60;;;3.92;;
74650;SDS011;63169;46.042;14.592;2023-11-19T00:11:29;8.65;;;4.20;;
74650;SDS011;63169;46.042;14.592;2023-11-19T00:13:54;8.52;;;4.40;;
74650;SDS011;63169;46.042;14.592;2023-11-19T00:16:20;5.82;;;3.50;;
74650;SDS011;63169;46.042;14.592;2023-11-19T00:18:45;11.00;;;5.53;;
74650;SDS011;63169;46.042;14.592;2023-11-19T00:21:11;11.82;;;5.00;;
74650;SDS011;63169;46.042;14.592;2023-11-19T00:23:36;10.60;;;5.07;;
74650;SDS011;63169;46.042;14.592;2023-11-19T00:26:02;10.48;;;4.10;;
74650;SDS011;63169;46.042;14.592;2023-11-19T00:28:30;10.93;;;4.30;;
74650;SDS011;63169;46.042;14.592;2023-11-19T00:30:56;12.07;;;5.45;;
74650;SDS011;63169;46.042;14.592;2023-11-19T00:33:22;11.15;;;5.53;;
74650;SDS011;63169;46.042;14.592;2023-11-19T00:35:47;8.30;;;4.57;;
74650;SDS011;63169;46.042;14.592;2023-11-19T00:38:13;7.45;;;4.30;;
74650;SDS011;63169;46.042;14.592;2023-11-19T00:40:38;13.18;;;5.97;;
74650;SDS011;63169;46.042;14.592;2023-11-19T00:43:05;10.60;;;5.43;;
74650;SDS011;63169;46.042;14.592;2023-11-19T00:45:32;14.13;;;6.10;;
74650;SDS011;63169;46.042;14.592;2023-11-19T00:47:57;11.88;;;9.45;;
74650;SDS011;63169;46.042;14.592;2023-11-19T00:50:24;8.80;;;5.20;;
74650;SDS011;63169;46.042;14.592;2023-11-19T00:52:50;10.65;;;5.45;;
74650;SDS011;63169;46.042;14.592;2023-11-19T00:55:16;11.27;;;5.30;;
74650;SDS011;63169;46.042;14.592;2023-11-19T00:57:42;8.15;;;4.82;;
74650;SDS011;63169;46.042;14.592;2023-11-19T01:00:07;11.52;;;5.70;;
74650;SDS011;63169;46.042;14.592;2023-11-19T01:02:44;11.85;;;6.95;;
74650;SDS011;63169;46.042;14.592;2023-11-19T01:07:39;8.88;;;5.43;;
74650;SDS011;63169;46.042;14.592;2023-11-19T01:10:04;11.80;;;5.85;;
74650;SDS011;63169;46.042;14.592;2023-11-19T01:12:30;10.25;;;5.53;;
74650;SDS011;63169;46.042;14.592;2023-11-19T01:14:56;10.73;;;6.13;;
74650;SDS011;63169;46.042;14.592;2023-11-19T01:17:23;9.85;;;5.47;;
74650;SDS011;63169;46.042;14.592;2023-11-19T01:19:48;10.40;;;5.80;;
74650;SDS011;63169;46.042;14.592;2023-11-19T01:22:15;12.07;;;5.63;;
74650;SDS011;63169;46.042;14.592;2023-11-19T01:24:40;7.18;;;4.68;;
74650;SDS011;63169;46.042;14.592;2023-11-19T01:27:06;10.35;;;5.03;;
74650;SDS011;63169;46.042;14.592;2023-11-19T01:29:31;8.32;;;4.88;;
74650;SDS011;63169;46.042;14.592;2023-11-19T01:31:56;9.10;;;7.68;;
74650;SDS011;63169;46.042;14.592;2023-11-19T01:34:22;6.75;;;4.30;;
74650;SDS011;63169;46.042;14.592;2023-11-19T01:36:47;9.25;;;6.57;;
74650;SDS011;63169;46.042;14.592;2023-11-19T01:39:13;10.38;;;7.30;;
74650;SDS011;63169;46.042;14.592;2023-11-19T01:41:41;9.80;;;4.45;;
74650;SDS011;63169;46.042;14.592;2023-11-19T01:44:06;8.25;;;3.05;;
74650;SDS011;63169;46.042;14.592;2023-11-19T01:46:32;8.80;;;3.78;;
74650;SDS011;63169;46.042;14.592;2023-11-19T01:49:00;7.35;;;5.63;;
74650;SDS011;63169;46.042;14.592;2023-11-19T01:51:27;5.75;;;2.92;;
74650;SDS011;63169;46.042;14.592;2023-11-19T01:53:53;7.97;;;6.72;;
74650;SDS011;63169;46.042;14.592;2023-11-19T01:56:18;8.50;;;3.35;;
74650;SDS011;63169;46.042;14.592;2023-11-19T01:58:44;8.45;;;4.05;;
74650;SDS011;63169;46.042;14.592;2023-11-19T02:01:10;8.00;;;3.78;;
74650;SDS011;63169;46.042;14.592;2023-11-19T02:03:37;8.90;;;5.00;;
74650;SDS011;63169;46.042;14.592;2023-11-19T02:06:03;7.35;;;3.50;;
74650;SDS011;63169;46.042;14.592;2023-11-19T02:08:29;8.25;;;3.42;;
74650;SDS011;63169;46.042;14.592;2023-11-19T02:10:55;7.47;;;4.28;;
74650;SDS011;63169;46.042;14.592;2023-11-19T02:13:23;7.70;;;3.75;;
74650;SDS011;63169;46.042;14.592;2023-11-19T02:15:51;6.90;;;6.30;;
74650;SDS011;63169;46.042;14.592;2023-11-19T02:18:24;9.68;;;4.63;;
74650;SDS011;63169;46.042;14.592;2023-11-19T02:20:53;10.35;;;4.25;;
74650;SDS011;63169;46.042;14.592;2023-11-19T02:23:19;8.27;;;3.80;;
74650;SDS011;63169;46.042;14.592;2023-11-19T02:28:47;11.05;;;3.30;;
74650;SDS011;63169;46.042;14.592;2023-11-19T02:31:13;8.18;;;3.80;;
74650;SDS011;63169;46.042;14.592;2023-11-19T02:33:39;6.63;;;3.85;;
74650;SDS011;63169;46.042;14.592;2023-11-19T02:36:05;8.73;;;5.35;;
74650;SDS011;63169;46.042;14.592;2023-11-19T02:38:32;9.90;;;3.55;;
74650;SDS011;63169;46.042;14.592;2023-11-19T02:40:58;8.48;;;4.38;;
74650;SDS011;63169;46.042;14.592;2023-11-19T02:43:24;12.90;;;4.60;;
74650;SDS011;63169;46.042;14.592;2023-11-19T02:45:50;9.90;;;8.27;;
74650;SDS011;63169;46.042;14.592;2023-11-19T02:48:15;10.43;;;4.60;;
74650;SDS011;63169;46.042;14.592;2023-11-19T02:50:43;9.50;;;7.93;;
74650;SDS011;63169;46.042;14.592;2023-11-19T02:53:09;9.73;;;4.72;;
74650;SDS011;63169;46.042;14.592;2023-11-19T02:55:34;8.43;;;5.13;;
74650;SDS011;63169;46.042;14.592;2023-11-19T02:58:03;8.05;;;4.45;;
74650;SDS011;63169;46.042;14.592;2023-11-19T03:00:34;9.73;;;4.30;;
74650;SDS011;63169;46.042;14.592;2023-11-19T03:03:12;10.32;;;4.93;;
74650;SDS011;63169;46.042;14.592;2023-11-19T03:05:48;8.90;;;5.18;;
74650;SDS011;63169;46.042;14.592;2023-11-19T03:08:15;13.13;;;4.75;;
74650;SDS011;63169;46.042;14.592;2023-11-19T03:13:09;7.90;;;4.30;;
74650;SDS011;63169;46.042;14.592;2023-11-19T03:15:37;7.10;;;3.78;;
74650;SDS011;63169;46.042;14.592;2023-11-19T03:18:02;8.13;;;4.70;;
74650;SDS011;63169;46.042;14.592;2023-11-19T03:20:27;9.52;;;4.70;;
74650;SDS011;63169;46.042;14.592;2023-11-19T03:22:55;8.45;;;4.75;;
74650;SDS011;63169;46.042;14.592;2023-11-19T03:25:20;8.13;;;4.50;;
74650;SDS011;63169;46.042;14.592;2023-11-19T03:27:46;9.75;;;4.25;;
74650;SDS011;63169;46.042;14.592;2023-11-19T03:30:11;11.52;;;4.53;;
74650;SDS011;63169;46.042;14.592;2023-11-19T03:32:37;11.18;;;4.95;;
74650;SDS011;63169;46.042;14.592;2023-11-19T03:35:04;8.65;;;4.97;;
74650;SDS011;63169;46.042;14.592;2023-11-19T03:37:32;9.40;;;3.97;;
74650;SDS011;63169;46.042;14.592;2023-11-19T03:39:57;13.35;;;4.78;;
74650;SDS011;63169;46.042;14.592;2023-11-19T03:42:27;7.35;;;4.40;;
74650;SDS011;63169;46.042;14.592;2023-11-19T03:44:53;8.45;;;4.70;;
74650;SDS011;63169;46.042;14.592;2023-11-19T03:47:19;8.05;;;4.55;;
74650;SDS011;63169;46.042;14.592;2023-11-19T03:49:48;9.23;;;5.05;;
74650;SDS011;63169;46.042;14.592;2023-11-19T03:52:14;8.15;;;4.07;;
74650;SDS011;63169;46.042;14.592;2023-11-19T03:54:39;9.02;;;4.00;;
74650;SDS011;63169;46.042;14.592;2023-11-19T03:57:05;9.88;;;3.70;;
74650;SDS011;63169;46.042;14.592;2023-11-19T03:59:30;11.77;;;5.05;;
74650;SDS011;63169;46.042;14.592;2023-11-19T04:01:55;8.20;;;3.60;;
74650;SDS011;63169;46.042;14.592;2023-11-19T04:04:21;7.85;;;4.20;;
74650;SDS011;63169;46.042;14.592;2023-11-19T04:06:47;9.82;;;8.00;;
74650;SDS011;63169;46.042;14.592;2023-11-19T04:09:13;12.80;;;4.75;;
74650;SDS011;63169;46.042;14.592;2023-11-19T04:11:38;7.20;;;4.00;;
74650;SDS011;63169;46.042;14.592;2023-11-19T04:14:05;10.52;;;4.97;;
74650;SDS011;63169;46.042;14.592;2023-11-19T04:16:30;9.32;;;3.92;;
74650;SDS011;63169;46.042;14.592;2023-11-19T04:18:56;8.20;;;4.25;;
74650;SDS011;63169;46.042;14.592;2023-11-19T04:21:21;6.93;;;2.88;;
74650;SDS011;63169;46.042;14.592;2023-11-19T04:23:48;7.75;;;3.30;;
74650;SDS011;63169;46.042;14.592;2023-11-19T04:26:13;9.85;;;5.47;;
74650;SDS011;63169;46.042;14.592;2023-11-19T04:28:38;8.00;;;4.85;;
74650;SDS011;63169;46.042;14.592;2023-11-19T04:31:04;6.40;;;3.95;;
74650;SDS011;63169;46.042;14.592;2023-11-19T04:33:31;9.90;;;8.27;;
74650;SDS011;63169;46.042;14.592;2023-11-19T04:35:56;8.73;;;4.07;;
74650;SDS011;63169;46.042;14.592;2023-11-19T04:38:21;6.88;;;3.13;;
74650;SDS011;63169;46.042;14.592;2023-11-19T04:40:47;6.85;;;2.67;;
74650;SDS011;63169;46.042;14.592;2023-11-19T04:43:12;8.90;;;4.57;;
74650;SDS011;63169;46.042;14.592;2023-11-19T04:45:38;7.63;;;5.43;;
74650;SDS011;63169;46.042;14.592;2023-11-19T04:48:04;8.13;;;4.20;;
74650;SDS011;63169;46.042;14.592;2023-11-19T04:50:30;10.55;;;4.07;;
74650;SDS011;63169;46.042;14.592;2023-11-19T04:52:55;5.93;;;3.42;;
74650;SDS011;63169;46.042;14.592;2023-11-19T04:55:21;7.60;;;3.00;;
74650;SDS011;63169;46.042;14.592;2023-11-19T04:57:47;7.18;;;3.92;;
74650;SDS011;63169;46.042;14.592;2023-11-19T05:00:13;6.38;;;3.38;;
74650;SDS011;63169;46.042;14.592;2023-11-19T05:02:38;8.02;;;4.63;;
74650;SDS011;63169;46.042;14.592;2023-11-19T05:05:04;6.82;;;4.07;;
74650;SDS011;63169;46.042;14.592;2023-11-19T05:07:30;5.68;;;2.97;;
74650;SDS011;63169;46.042;14.592;2023-11-19T05:09:55;6.65;;;3.17;;
74650;SDS011;63169;46.042;14.592;2023-11-19T05:12:21;6.70;;;3.60;;
74650;SDS011;63169;46.042;14.592;2023-11-19T05:14:47;9.60;;;3.70;;
74650;SDS011;63169;46.042;14.592;2023-11-19T05:17:15;7.25;;;4.50;;
74650;SDS011;63169;46.042;14.592;2023-11-19T05:19:43;5.85;;;2.60;;
74650;SDS011;63169;46.042;14.592;2023-11-19T05:22:08;6.32;;;2.95;;
74650;SDS011;63169;46.042;14.592;2023-11-19T05:24:33;6.50;;;3.45;;
74650;SDS011;63169;46.042;14.592;2023-11-19T05:26:59;5.63;;;3.78;;
74650;SDS011;63169;46.042;14.592;2023-11-19T05:29:24;5.50;;;2.50;;
74650;SDS011;63169;46.042;14.592;2023-11-19T05:31:50;6.82;;;3.75;;
74650;SDS011;63169;46.042;14.592;2023-11-19T05:34:15;10.27;;;4.22;;
74650;SDS011;63169;46.042;14.592;2023-11-19T05:36:40;9.80;;;4.18;;
74650;SDS011;63169;46.042;14.592;2023-11-19T05:39:06;6.35;;;2.80;;
74650;SDS011;63169;46.042;14.592;2023-11-19T05:41:31;7.93;;;3.70;;
74650;SDS011;63169;46.042;14.592;2023-11-19T05:43:57;6.30;;;3.58;;
74650;SDS011;63169;46.042;14.592;2023-11-19T05:46:22;7.85;;;2.95;;
74650;SDS011;63169;46.042;14.592;2023-11-19T05:48:48;8.80;;;5.32;;
74650;SDS011;63169;46.042;14.592;2023-11-19T05:51:13;10.90;;;6.15;;
74650;SDS011;63169;46.042;14.592;2023-11-19T05:53:40;9.07;;;3.55;;
74650;SDS011;63169;46.042;14.592;2023-11-19T05:56:06;5.90;;;3.33;;
74650;SDS011;63169;46.042;14.592;2023-11-19T05:58:34;9.40;;;3.58;;
74650;SDS011;63169;46.042;14.592;2023-11-19T06:01:00;6.63;;;3.22;;
74650;SDS011;63169;46.042;14.592;2023-11-19T06:03:26;5.32;;;3.00;;
74650;SDS011;63169;46.042;14.592;2023-11-19T06:05:52;7.82;;;4.78;;
74650;SDS011;63169;46.042;14.592;2023-11-19T06:08:19;7.25;;;4.60;;
74650;SDS011;63169;46.042;14.592;2023-11-19T06:10:45;7.30;;;2.65;;
74650;SDS011;63169;46.042;14.592;2023-11-19T06:13:12;7.30;;;3.20;;
74650;SDS011;63169;46.042;14.592;2023-11-19T06:15:40;5.38;;;2.85;;
74650;SDS011;63169;46.042;14.592;2023-11-19T06:18:09;8.85;;;4.25;;
74650;SDS011;63169;46.042;14.592;2023-11-19T06:20:36;11.88;;;4.28;;
74650;SDS011;63169;46.042;14.592;2023-11-19T06:23:02;7.85;;;6.45;;
74650;SDS011;63169;46.042;14.592;2023-11-19T06:25:27;14.88;;;4.65;;
74650;SDS011;63169;46.042;14.592;2023-11-19T06:27:53;8.10;;;3.83;;
74650;SDS011;63169;46.042;14.592;2023-11-19T06:30:19;8.15;;;3.67;;
74650;SDS011;63169;46.042;14.592;2023-11-19T06:32:44;9.52;;;3.78;;
74650;SDS011;63169;46.042;14.592;2023-11-19T06:35:10;9.52;;;6.80;;
74650;SDS011;63169;46.042;14.592;2023-11-19T06:37:37;9.23;;;4.85;;
74650;SDS011;63169;46.042;14.592;2023-11-19T06:40:03;9.05;;;4.53;;
74650;SDS011;63169;46.042;14.592;2023-11-19T06:42:30;10.43;;;6.72;;
74650;SDS011;63169;46.042;14.592;2023-11-19T06:44:55;12.20;;;5.35;;
74650;SDS011;63169;46.042;14.592;2023-11-19T06:47:22;15.50;;;7.78;;
74650;SDS011;63169;46.042;14.592;2023-11-19T06:49:48;13.65;;;6.20;;
74650;SDS011;63169;46.042;14.592;2023-11-19T06:52:13;21.25;;;8.35;;
74650;SDS011;63169;46.042;14.592;2023-11-19T06:54:39;15.85;;;6.32;;
74650;SDS011;63169;46.042;14.592;2023-11-19T06:57:04;11.77;;;6.90;;
74650;SDS011;63169;46.042;14.592;2023-11-19T06:59:30;13.25;;;7.65;;
74650;SDS011;63169;46.042;14.592;2023-11-19T07:01:56;13.10;;;6.70;;
74650;SDS011;63169;46.042;14.592;2023-11-19T07:04:21;14.98;;;10.07;;
74650;SDS011;63169;46.042;14.592;2023-11-19T07:06:47;11.93;;;5.80;;
74650;SDS011;63169;46.042;14.592;2023-11-19T07:09:13;12.27;;;5.30;;
74650;SDS011;63169;46.042;14.592;2023-11-19T07:11:39;10.05;;;5.88;;
74650;SDS011;63169;46.042;14.592;2023-11-19T07:14:05;12.07;;;6.03;;
74650;SDS011;63169;46.042;14.592;2023-11-19T07:16:34;13.35;;;6.47;;
74650;SDS011;63169;46.042;14.592;2023-11-19T07:19:02;14.38;;;10.40;;
74650;SDS011;63169;46.042;14.592;2023-11-19T07:21:27;12.15;;;10.73;;
74650;SDS011;63169;46.042;14.592;2023-11-19T07:23:53;13.77;;;6.97;;
74650;SDS011;63169;46.042;14.592;2023-11-19T07:26:19;12.30;;;7.57;;
74650;SDS011;63169;46.042;14.592;2023-11-19T07:28:45;11.23;;;6.35;;
74650;SDS011;63169;46.042;14.592;2023-11-19T07:31:10;11.43;;;7.28;;
74650;SDS011;63169;46.042;14.592;2023-11-19T07:33:36;11.38;;;9.68;;
74650;SDS011;63169;46.042;14.592;2023-11-19T07:36:01;11.55;;;6.57;;
74650;SDS011;63169;46.042;14.592;2023-11-19T07:38:27;19.45;;;12.77;;
74650;SDS011;63169;46.042;14.592;2023-11-19T07:40:52;15.77;;;7.68;;
74650;SDS011;63169;46.042;14.592;2023-11-19T07:43:18;17.60;;;13.02;;
74650;SDS011;63169;46.042;14.592;2023-11-19T07:45:43;13.05;;;7.57;;
74650;SDS011;63169;46.042;14.592;2023-11-19T07:48:10;10.82;;;7.55;;
74650;SDS011;63169;46.042;14.592;2023-11-19T07:50:38;15.38;;;11.68;;
74650;SDS011;63169;46.042;14.592;2023-11-19T07:53:03;13.63;;;11.77;;
74650;SDS011;63169;46.042;14.592;2023-11-19T07:55:29;19.77;;;13.20;;
74650;SDS011;63169;46.042;14.592;2023-11-19T07:57:55;16.83;;;10.27;;
74650;SDS011;63169;46.042;14.592;2023-11-19T08:00:21;16.08;;;13.25;;
74650;SDS011;63169;46.042;14.592;2023-11-19T08:02:46;17.25;;;12.88;;
74650;SDS011;63169;46.042;14.592;2023-11-19T08:05:12;15.07;;;12.32;;
74650;SDS011;63169;46.042;14.592;2023-11-19T08:07:37;12.35;;;8.55;;
74650;SDS011;63169;46.042;14.592;2023-11-19T08:10:03;18.08;;;12.50;;
74650;SDS011;63169;46.042;14.592;2023-11-19T08:12:30;17.92;;;9.20;;
74650;SDS011;63169;46.042;14.592;2023-11-19T08:14:56;17.75;;;13.70;;
74650;SDS011;63169;46.042;14.592;2023-11-19T08:17:23;18.20;;;13.35;;
74650;SDS011;63169;46.042;14.592;2023-11-19T08:19:49;21.52;;;9.05;;
74650;SDS011;63169;46.042;14.592;2023-11-19T08:22:14;19.45;;;9.90;;
74650;SDS011;63169;46.042;14.592;2023-11-19T08:24:41;15.45;;;8.95;;
74650;SDS011;63169;46.042;14.592;2023-11-19T08:27:07;17.08;;;8.98;;
74650;SDS011;63169;46.042;14.592;2023-11-19T08:29:33;19.35;;;9.35;;
74650;SDS011;63169;46.042;14.592;2023-11-19T08:32:00;16.75;;;13.23;;
74650;SDS011;63169;46.042;14.592;2023-11-19T08:34:27;20.15;;;11.80;;
74650;SDS011;63169;46.042;14.592;2023-11-19T08:36:52;15.75;;;8.85;;
74650;SDS011;63169;46.042;14.592;2023-11-19T08:39:18;23.90;;;14.02;;
74650;SDS011;63169;46.042;14.592;2023-11-19T08:41:46;14.70;;;9.45;;
74650;SDS011;63169;46.042;14.592;2023-11-19T08:44:11;15.70;;;9.15;;
74650;SDS011;63169;46.042;14.592;2023-11-19T08:46:37;18.80;;;15.60;;
74650;SDS011;63169;46.042;14.592;2023-11-19T08:49:02;19.80;;;9.65;;
74650;SDS011;63169;46.042;14.592;2023-11-19T08:51:28;15.30;;;10.30;;
74650;SDS011;63169;46.042;14.592;2023-11-19T08:53:53;18.33;;;9.15;;
74650;SDS011;63169;46.042;14.592;2023-11-19T08:56:19;16.95;;;13.05;;
74650;SDS011;63169;46.042;14.592;2023-11-19T08:58:44;18.20;;;12.60;;
74650;SDS011;63169;46.042;14.592;2023-11-19T09:01:10;18.77;;;9.55;;
74650;SDS011;63169;46.042;14.592;2023-11-19T09:03:35;18.17;;;12.93;;
74650;SDS011;63169;46.042;14.592;2023-11-19T09:06:02;18.63;;;15.07;;
74650;SDS011;63169;46.042;14.592;2023-11-19T09:08:27;17.17;;;9.25;;
74650;SDS011;63169;46.042;14.592;2023-11-19T09:10:53;19.38;;;13.25;;
74650;SDS011;63169;46.042;14.592;2023-11-19T09:13:18;19.60;;;13.77;;
74650;SDS011;63169;46.042;14.592;2023-11-19T09:15:44;22.05;;;10.88;;
74650;SDS011;63169;46.042;14.592;2023-11-19T09:18:12;17.08;;;11.63;;
74650;SDS011;63169;46.042;14.592;2023-11-19T09:20:37;15.02;;;11.27;;
74650;SDS011;63169;46.042;14.592;2023-11-19T09:23:04;13.65;;;7.00;;
74650;SDS011;63169;46.042;14.592;2023-11-19T09:25:30;15.20;;;11.15;;
74650;SDS011;63169;46.042;14.592;2023-11-19T09:27:56;13.75;;;8.93;;
74650;SDS011;63169;46.042;14.592;2023-11-19T09:30:21;14.93;;;11.05;;
74650;SDS011;63169;46.042;14.592;2023-11-19T09:32:47;15.93;;;9.00;;
74650;SDS011;63169;46.042;14.592;2023-11-19T09:35:13;12.45;;;8.30;;
74650;SDS011;63169;46.042;14.592;2023-11-19T09:37:39;16.45;;;8.07;;
74650;SDS011;63169;46.042;14.592;2023-11-19T09:40:05;16.92;;;7.78;;
74650;SDS011;63169;46.042;14.592;2023-11-19T09:42:36;18.77;;;8.60;;
74650;SDS011;63169;46.042;14.592;2023-11-19T09:45:14;15.85;;;10.98;;
74650;SDS011;63169;46.042;14.592;2023-11-19T09:47:44;10.45;;;7.03;;
74650;SDS011;63169;46.042;14.592;2023-11-19T09:50:13;12.80;;;11.48;;
74650;SDS011;63169;46.042;14.592;2023-11-19T09:52:40;14.68;;;10.00;;
74650;SDS011;63169;46.042;14.592;2023-11-19T09:55:06;11.77;;;9.80;;
74650;SDS011;63169;46.042;14.592;2023-11-19T09:57:32;16.17;;;11.52;;
74650;SDS011;63169;46.042;14.592;2023-11-19T10:02:24;14.15;;;6.60;;
74650;SDS011;63169;46.042;14.592;2023-11-19T10:07:16;10.73;;;5.90;;
74650;SDS011;63169;46.042;14.592;2023-11-19T10:09:42;14.25;;;9.25;;
74650;SDS011;63169;46.042;14.592;2023-11-19T10:12:08;13.52;;;9.98;;
74650;SDS011;63169;46.042;14.592;2023-11-19T10:14:34;15.88;;;10.73;;
74650;SDS011;63169;46.042;14.592;2023-11-19T10:17:01;12.82;;;10.27;;
74650;SDS011;63169;46.042;14.592;2023-11-19T10:19:29;13.02;;;6.85;;
74650;SDS011;63169;46.042;14.592;2023-11-19T10:21:54;9.88;;;6.57;;
74650;SDS011;63169;46.042;14.592;2023-11-19T10:24:32;12.27;;;10.85;;
74650;SDS011;63169;46.042;14.592;2023-11-19T10:26:59;14.13;;;6.63;;
74650;SDS011;63169;46.042;14.592;2023-11-19T10:29:25;12.20;;;10.23;;
74650;SDS011;63169;46.042;14.592;2023-11-19T10:31:57;17.05;;;6.68;;
74650;SDS011;63169;46.042;14.592;2023-11-19T10:34:24;12.57;;;10.10;;
74650;SDS011;63169;46.042;14.592;2023-11-19T10:36:51;12.35;;;6.05;;
74650;SDS011;63169;46.042;14.592;2023-11-19T10:39:16;11.50;;;5.70;;
74650;SDS011;63169;46.042;14.592;2023-11-19T10:41:43;12.80;;;10.43;;
74650;SDS011;63169;46.042;14.592;2023-11-19T10:44:08;11.63;;;6.47;;
74650;SDS011;63169;46.042;14.592;2023-11-19T10:46:40;18.40;;;8.90;;
74650;SDS011;63169;46.042;14.592;2023-11-19T10:49:07;19.55;;;15.52;;
74650;SDS011;63169;46.042;14.592;2023-11-19T10:51:33;11.55;;;9.20;;
74650;SDS011;63169;46.042;14.592;2023-11-19T10:54:01;11.95;;;10.15;;
74650;SDS011;63169;46.042;14.592;2023-11-19T10:56:30;13.32;;;11.93;;
74650;SDS011;63169;46.042;14.592;2023-11-19T10:59:00;13.13;;;7.07;;
74650;SDS011;63169;46.042;14.592;2023-11-19T11:03:59;12.05;;;9.63;;
74650;SDS011;63169;46.042;14.592;2023-11-19T11:06:26;14.77;;;6.72;;
74650;SDS011;63169;46.042;14.592;2023-11-19T11:08:52;13.27;;;9.70;;
74650;SDS011;63169;46.042;14.592;2023-11-19T11:11:19;14.70;;;10.80;;
74650;SDS011;63169;46.042;14.592;2023-11-19T11:13:48;15.25;;;7.80;;
74650;SDS011;63169;46.042;14.592;2023-11-19T11:16:15;13.88;;;11.25;;
74650;SDS011;63169;46.042;14.592;2023-11-19T11:18:43;16.38;;;11.82;;
74650;SDS011;63169;46.042;14.592;2023-11-19T11:21:11;14.18;;;8.63;;
74650;SDS011;63169;46.042;14.592;2023-11-19T11:29:41;15.35;;;7.22;;
74650;SDS011;63169;46.042;14.592;2023-11-19T11:37:39;13.98;;;12.10;;
74650;SDS011;63169;46.042;14.592;2023-11-19T11:40:16;15.55;;;12.05;;
74650;SDS011;63169;46.042;14.592;2023-11-19T11:42:46;16.58;;;12.40;;
74650;SDS011;63169;46.042;14.592;2023-11-19T11:45:12;16.67;;;13.43;;
74650;SDS011;63169;46.042;14.592;2023-11-19T11:50:07;17.10;;;11.88;;
74650;SDS011;63169;46.042;14.592;2023-11-19T11:52:33;17.10;;;12.98;;
74650;SDS011;63169;46.042;14.592;2023-11-19T11:55:04;18.55;;;13.18;;
74650;SDS011;63169;46.042;14.592;2023-11-19T11:57:36;17.00;;;13.40;;
74650;SDS011;63169;46.042;14.592;2023-11-19T12:00:03;14.60;;;12.38;;
74650;SDS011;63169;46.042;14.592;2023-11-19T12:02:30;13.70;;;10.27;;
74650;SDS011;63169;46.042;14.592;2023-11-19T12:04:56;16.67;;;14.73;;
74650;SDS011;63169;46.042;14.592;2023-11-19T12:07:22;13.43;;;11.73;;
74650;SDS011;63169;46.042;14.592;2023-11-19T12:12:17;14.60;;;11.25;;
74650;SDS011;63169;46.042;14.592;2023-11-19T12:20:01;12.43;;;7.45;;
74650;SDS011;63169;46.042;14.592;2023-11-19T12:22:37;13.90;;;9.63;;
74650;SDS011;63169;46.042;14.592;2023-11-19T12:25:04;11.68;;;10.05;;
74650;SDS011;63169;46.042;14.592;2023-11-19T12:27:47;13.07;;;9.02;;
74650;SDS011;63169;46.042;14.592;2023-11-19T12:30:17;11.27;;;9.50;;
74650;SDS011;63169;46.042;14.592;2023-11-19T12:32:51;12.05;;;8.07;;
74650;SDS011;63169;46.042;14.592;2023-11-19T12:35:19;11.68;;;9.27;;
74650;SDS011;63169;46.042;14.592;2023-11-19T12:37:51;9.82;;;6.47;;
74650;SDS011;63169;46.042;14.592;2023-11-19T12:40:18;11.30;;;8.73;;
74650;SDS011;63169;46.042;14.592;2023-11-19T12:42:54;11.23;;;9.85;;
74650;SDS011;63169;46.042;14.592;2023-11-19T12:45:20;13.38;;;10.80;;
74650;SDS011;63169;46.042;14.592;2023-11-19T12:47:46;12.82;;;10.48;;
74650;SDS011;63169;46.042;14.592;2023-11-19T12:52:38;12.02;;;7.38;;
74650;SDS011;63169;46.042;14.592;2023-11-19T12:55:05;12.15;;;10.15;;
74650;SDS011;63169;46.042;14.592;2023-11-19T12:57:38;11.55;;;9.95;;
74650;SDS011;63169;46.042;14.592;2023-11-19T13:00:05;13.32;;;10.02;;
74650;SDS011;63169;46.042;14.592;2023-11-19T13:02:50;10.75;;;6.47;;
74650;SDS011;63169;46.042;14.592;2023-11-19T13:07:57;12.10;;;8.07;;
74650;SDS011;63169;46.042;14.592;2023-11-19T13:10:27;16.08;;;12.35;;
74650;SDS011;63169;46.042;14.592;2023-11-19T13:15:27;11.05;;;6.82;;
74650;SDS011;63169;46.042;14.592;2023-11-19T13:17:53;12.40;;;10.82;;
74650;SDS011;63169;46.042;14.592;2023-11-19T13:20:19;10.07;;;9.07;;
74650;SDS011;63169;46.042;14.592;2023-11-19T13:22:56;9.55;;;7.80;;
74650;SDS011;63169;46.042;14.592;2023-11-19T13:25:23;9.73;;;8.40;;
74650;SDS011;63169;46.042;14.592;2023-11-19T13:27:48;9.57;;;6.18;;
74650;SDS011;63169;46.042;14.592;2023-11-19T13:30:14;14.98;;;8.73;;
74650;SDS011;63169;46.042;14.592;2023-11-19T13:32:39;10.23;;;9.25;;
74650;SDS011;63169;46.042;14.592;2023-11-19T13:35:05;11.60;;;9.48;;
74650;SDS011;63169;46.042;14.592;2023-11-19T13:37:33;13.63;;;8.98;;
74650;SDS011;63169;46.042;14.592;2023-11-19T13:39:59;11.00;;;9.30;;
74650;SDS011;63169;46.042;14.592;2023-11-19T13:42:24;13.25;;;12.07;;
74650;SDS011;63169;46.042;14.592;2023-11-19T13:44:50;10.75;;;9.48;;
74650;SDS011;63169;46.042;14.592;2023-11-19T13:47:15;10.98;;;8.35;;
74650;SDS011;63169;46.042;14.592;2023-11-19T13:49:41;14.20;;;10.48;;
74650;SDS011;63169;46.042;14.592;2023-11-19T13:52:06;11.65;;;8.50;;
74650;SDS011;63169;46.042;14.592;2023-11-19T13:54:31;37.28;;;24.10;;
74650;SDS011;63169;46.042;14.592;2023-11-19T13:56:57;27.10;;;19.95;;
74650;SDS011;63169;46.042;14.592;2023-11-19T13:59:23;16.60;;;10.80;;
74650;SDS011;63169;46.042;14.592;2023-11-19T14:01:49;13.75;;;9.57;;
74650;SDS011;63169;46.042;14.592;2023-11-19T14:04:14;13.73;;;10.43;;
74650;SDS011;63169;46.042;14.592;2023-11-19T14:06:40;14.60;;;11.93;;
74650;SDS011;63169;46.042;14.592;2023-11-19T14:09:06;15.13;;;12.90;;
74650;SDS011;63169;46.042;14.592;2023-11-19T14:11:32;21.73;;;12.18;;
74650;SDS011;63169;46.042;14.592;2023-11-19T14:13:58;26.35;;;17.70;;
74650;SDS011;63169;46.042;14.592;2023-11-19T14:16:26;20.77;;;14.40;;
74650;SDS011;63169;46.042;14.592;2023-11-19T14:18:52;26.50;;;16.60;;
74650;SDS011;63169;46.042;14.592;2023-11-19T14:21:18;22.88;;;15.50;;
74650;SDS011;63169;46.042;14.592;2023-11-19T14:23:43;12.23;;;7.55;;
74650;SDS011;63169;46.042;14.592;2023-11-19T14:26:08;11.73;;;6.50;;
74650;SDS011;63169;46.042;14.592;2023-11-19T14:28:34;12.13;;;7.93;;
74650;SDS011;63169;46.042;14.592;2023-11-19T14:30:59;9.38;;;8.32;;
74650;SDS011;63169;46.042;14.592;2023-11-19T14:33:25;10.40;;;7.15;;
74650;SDS011;63169;46.042;14.592;2023-11-19T14:35:51;8.90;;;5.10;;
74650;SDS011;63169;46.042;14.592;2023-11-19T14:38:17;9.63;;;8.15;;
74650;SDS011;63169;46.042;14.592;2023-11-19T14:40:42;11.32;;;7.30;;
74650;SDS011;63169;46.042;14.592;2023-11-19T14:43:08;9.48;;;7.55;;
74650;SDS011;63169;46.042;14.592;2023-11-19T14:45:36;8.88;;;6.97;;
74650;SDS011;63169;46.042;14.592;2023-11-19T14:48:02;8.65;;;4.88;;
74650;SDS011;63169;46.042;14.592;2023-11-19T14:50:27;10.55;;;7.43;;
74650;SDS011;63169;46.042;14.592;2023-11-19T14:52:53;8.77;;;6.53;;
74650;SDS011;63169;46.042;14.592;2023-11-19T14:55:18;8.52;;;6.57;;
74650;SDS011;63169;46.042;14.592;2023-11-19T14:57:44;11.02;;;7.82;;
74650;SDS011;63169;46.042;14.592;2023-11-19T15:00:10;13.98;;;8.50;;
74650;SDS011;63169;46.042;14.592;2023-11-19T15:02:39;12.10;;;8.70;;
74650;SDS011;63169;46.042;14.592;2023-11-19T15:05:06;11.50;;;6.88;;